Young America, Minnesota
Current Conditions -  °F | °C
As of 11:14 PM on Friday 24 Oct 2014 (Local Time) from KGYL Reporting Station
Clear Clear  
Wind Chill: 16°   Ceiling: Unl
Heat Index: 16°   Visibility: 10mi
Dew Point:   Wind: 10mph
Humidity: 57%   Direction: 280°W
Pressure: 29.91"   Gusts: NA
Location:  44.78°N, 93.92°W
Report Text: KGYL 250414Z AUTO 28009KT 10SM CLR 16/07 A2991 RMK AO2 T01580072
Loading
Personal Weather Stations






























Interactive Weather Map
Tropical Storm Tracking
New forecast layout! Learn more

10-Day Weather Forecast

Advertisements
Track Severe Weather on mobile